createdAt,value
2019-02-24T00:00:58.820Z,0.38
2019-02-24T00:01:58.688Z,0.38
2019-02-24T00:02:58.554Z,0.43
2019-02-24T00:03:58.420Z,0.43
2019-02-24T00:04:58.285Z,0.49
2019-02-24T00:05:58.165Z,0.53
2019-02-24T00:06:58.027Z,0.49
2019-02-24T00:07:57.888Z,0.49
2019-02-24T00:08:57.752Z,0.52
2019-02-24T00:09:57.619Z,0.52
2019-02-24T00:10:57.488Z,0.53
2019-02-24T00:11:57.356Z,0.46
2019-02-24T00:12:57.223Z,0.57
2019-02-24T00:13:57.088Z,0.52
2019-02-24T00:14:56.956Z,0.49
2019-02-24T00:15:56.818Z,0.60
2019-02-24T00:16:56.687Z,0.57
2019-02-24T00:17:56.552Z,0.58
2019-02-24T00:18:56.424Z,0.57
2019-02-24T00:19:56.284Z,0.57
2019-02-24T00:20:56.155Z,0.62
2019-02-24T00:21:56.025Z,0.57
2019-02-24T00:22:55.886Z,0.52
2019-02-24T00:23:55.753Z,0.46
2019-02-24T00:24:55.621Z,0.52
2019-02-24T00:25:55.487Z,0.53
2019-02-24T00:26:55.353Z,0.53
2019-02-24T00:27:55.221Z,0.53
2019-02-24T00:28:55.087Z,0.58
2019-02-24T00:29:54.952Z,0.57
2019-02-24T00:30:54.819Z,0.57
2019-02-24T00:31:54.687Z,0.53
2019-02-24T00:32:55.554Z,0.58
2019-02-24T00:33:54.417Z,0.49
2019-02-24T00:34:54.288Z,0.58
2019-02-24T00:35:54.152Z,0.68
2019-02-24T00:36:54.021Z,0.51
2019-02-24T00:37:53.890Z,0.61
2019-02-24T00:38:53.750Z,0.62
2019-02-24T00:39:53.618Z,0.62
2019-02-24T00:40:53.489Z,0.65
2019-02-24T00:41:53.350Z,0.62
2019-02-24T00:42:53.219Z,0.61
2019-02-24T00:43:53.087Z,0.65
2019-02-24T00:44:52.955Z,0.61
2019-02-24T00:45:52.818Z,0.67
2019-02-24T00:46:52.684Z,0.58
2019-02-24T00:47:52.551Z,0.68
2019-02-24T00:48:52.417Z,0.61
2019-02-24T00:49:52.287Z,0.53
2019-02-24T00:50:52.150Z,0.49
2019-02-24T00:51:52.017Z,0.62
2019-02-24T00:52:51.886Z,0.52
2019-02-24T00:53:51.752Z,0.58
2019-02-24T00:54:51.616Z,0.58
2019-02-24T00:55:51.492Z,0.51
2019-02-24T00:56:51.354Z,0.53
2019-02-24T00:57:51.218Z,0.70
2019-02-24T00:58:51.086Z,0.68
2019-02-24T00:59:50.954Z,0.60
2019-02-24T01:00:50.818Z,0.60
2019-02-24T01:01:50.691Z,0.65
2019-02-24T01:02:50.552Z,0.67
2019-02-24T01:03:50.417Z,0.62
2019-02-24T01:04:50.284Z,0.68
2019-02-24T01:05:50.152Z,0.58
2019-02-24T01:06:50.022Z,0.53
2019-02-24T01:07:49.884Z,0.51
2019-02-24T01:08:49.754Z,0.58
2019-02-24T01:09:49.617Z,0.60
2019-02-24T01:10:49.485Z,0.41
2019-02-24T01:11:49.358Z,0.38
2019-02-24T01:12:49.231Z,0.41
2019-02-24T01:13:49.089Z,0.33
2019-02-24T01:14:48.953Z,0.28
2019-02-24T01:15:48.816Z,0.30
2019-02-24T01:16:48.686Z,0.33
2019-02-24T01:17:48.550Z,0.42
2019-02-24T01:18:48.421Z,0.38
2019-02-24T01:19:48.283Z,0.42
2019-02-24T01:20:48.151Z,0.30
2019-02-24T01:21:48.016Z,0.28
2019-02-24T01:22:47.887Z,0.23
2019-02-24T01:23:47.755Z,0.28
2019-02-24T01:24:47.623Z,0.34
2019-02-24T01:25:47.489Z,0.42
2019-02-24T01:26:47.353Z,0.41
2019-02-24T01:27:47.217Z,0.41
2019-02-24T01:28:47.086Z,0.39
2019-02-24T01:29:46.953Z,0.31
2019-02-24T01:30:46.818Z,0.41
2019-02-24T01:31:46.684Z,0.34
2019-02-24T01:32:46.553Z,0.58
2019-02-24T01:33:46.416Z,0.49
2019-02-24T01:34:46.285Z,0.62
2019-02-24T01:35:46.151Z,0.53
2019-02-24T01:36:46.017Z,0.57
2019-02-24T01:37:45.885Z,0.57
2019-02-24T01:38:45.753Z,0.58
2019-02-24T01:39:45.619Z,0.49
2019-02-24T01:40:45.487Z,0.53
2019-02-24T01:41:45.354Z,0.52
2019-02-24T01:42:45.224Z,0.57
2019-02-24T01:43:45.086Z,0.49
2019-02-24T01:44:44.953Z,0.46
2019-02-24T01:45:44.818Z,0.46
2019-02-24T01:46:44.685Z,0.41
2019-02-24T01:47:44.550Z,0.46
2019-02-24T01:48:44.418Z,0.39
2019-02-24T01:49:44.286Z,0.39
2019-02-24T01:50:44.155Z,0.38
2019-02-24T01:51:44.021Z,0.45
2019-02-24T01:52:43.903Z,0.48
2019-02-24T01:53:43.754Z,0.38
2019-02-24T01:54:43.621Z,0.38
2019-02-24T01:55:43.488Z,0.36
2019-02-24T01:56:43.352Z,0.39
2019-02-24T01:57:43.218Z,0.33
2019-02-24T01:58:43.085Z,0.39
2019-02-24T01:59:42.953Z,0.33
2019-02-24T02:00:42.823Z,0.30
2019-02-24T02:01:42.689Z,0.39
2019-02-24T02:02:42.554Z,0.34
2019-02-24T02:03:42.422Z,0.36
2019-02-24T02:04:42.287Z,0.38
2019-02-24T02:05:42.154Z,0.33
2019-02-24T02:06:42.019Z,0.36
2019-02-24T02:07:41.887Z,0.39
2019-02-24T02:08:41.752Z,0.33
2019-02-24T02:09:41.623Z,0.38
2019-02-24T02:10:41.488Z,0.38
2019-02-24T02:11:41.354Z,0.42
2019-02-24T02:12:41.224Z,0.42
2019-02-24T02:13:41.086Z,0.42
2019-02-24T02:14:40.955Z,0.41
2019-02-24T02:15:40.822Z,0.39
2019-02-24T02:16:40.709Z,0.53
2019-02-24T02:17:40.554Z,0.67
2019-02-24T02:18:40.422Z,0.71
2019-02-24T02:19:40.284Z,0.75
2019-02-24T02:20:40.155Z,0.68
2019-02-24T02:21:40.019Z,0.68
2019-02-24T02:22:39.889Z,0.62
2019-02-24T02:23:39.750Z,0.64
2019-02-24T02:24:39.619Z,0.52
2019-02-24T02:25:39.488Z,0.51
2019-02-24T02:26:39.353Z,0.48
2019-02-24T02:27:39.220Z,0.42
2019-02-24T02:28:44.021Z,0.42
2019-02-24T02:29:38.956Z,0.31
2019-02-24T02:30:38.817Z,0.41
2019-02-24T02:31:38.687Z,0.38
2019-02-24T02:32:38.555Z,0.39
2019-02-24T02:33:38.419Z,0.41
2019-02-24T02:34:38.287Z,0.39
2019-02-24T02:35:38.151Z,0.42
2019-02-24T02:36:38.021Z,0.30
2019-02-24T02:37:37.883Z,0.33
2019-02-24T02:38:37.770Z,0.30
2019-02-24T02:39:37.614Z,0.33
2019-02-24T02:40:37.482Z,0.38
2019-02-24T02:41:38.972Z,0.41
2019-02-24T02:42:37.216Z,0.27
2019-02-24T02:43:37.085Z,0.31
2019-02-24T02:44:36.949Z,0.27
2019-02-24T02:45:36.817Z,0.27
2019-02-24T02:46:36.685Z,0.24
2019-02-24T02:47:36.546Z,0.36
2019-02-24T02:48:36.421Z,0.43
2019-02-24T02:49:36.284Z,0.41
2019-02-24T02:50:36.152Z,0.36
2019-02-24T02:51:36.019Z,0.42
2019-02-24T02:52:35.883Z,0.39
2019-02-24T02:53:35.748Z,0.41
2019-02-24T02:54:35.615Z,0.39
2019-02-24T02:55:35.482Z,0.48
2019-02-24T02:56:35.348Z,0.39
2019-02-24T02:57:35.213Z,0.34
2019-02-24T02:58:35.079Z,0.33
2019-02-24T02:59:34.950Z,0.43
2019-02-24T03:00:34.818Z,0.39
2019-02-24T03:01:34.681Z,0.39
2019-02-24T03:02:34.553Z,0.33
2019-02-24T03:03:34.410Z,0.45
2019-02-24T03:04:34.276Z,0.49
2019-02-24T03:05:34.143Z,0.49
2019-02-24T03:06:34.021Z,0.51
2019-02-24T03:07:33.878Z,0.52
2019-02-24T03:08:33.743Z,0.48
2019-02-24T03:09:33.619Z,0.58
2019-02-24T03:10:33.479Z,0.57
2019-02-24T03:11:33.344Z,0.65
2019-02-24T03:12:33.208Z,0.65
2019-02-24T03:13:33.078Z,0.60
2019-02-24T03:14:32.946Z,0.51
2019-02-24T03:15:32.808Z,0.64
2019-02-24T03:16:32.675Z,0.60
2019-02-24T03:17:32.544Z,0.60
2019-02-24T03:18:32.423Z,0.62
2019-02-24T03:19:32.277Z,0.61
2019-02-24T03:20:32.142Z,0.64
2019-02-24T03:21:32.006Z,0.67
2019-02-24T03:22:31.876Z,0.62
2019-02-24T03:23:31.738Z,0.60
2019-02-24T03:24:31.607Z,0.65
2019-02-24T03:25:31.472Z,0.75
2019-02-24T03:26:31.339Z,0.62
2019-02-24T03:27:31.208Z,0.65
2019-02-24T03:28:31.072Z,0.65
2019-02-24T03:29:30.938Z,0.65
2019-02-24T03:30:30.809Z,0.60
2019-02-24T03:31:30.679Z,0.65
2019-02-24T03:32:30.543Z,0.61
2019-02-24T03:33:30.410Z,0.61
2019-02-24T03:34:30.269Z,0.64
2019-02-24T03:35:30.136Z,0.72
2019-02-24T03:36:30.001Z,0.62
2019-02-24T03:37:30.869Z,0.61
2019-02-24T03:38:29.734Z,0.60
2019-02-24T03:39:29.601Z,0.51
2019-02-24T03:40:29.465Z,0.57
2019-02-24T03:41:29.336Z,0.62
2019-02-24T03:42:29.207Z,0.62
2019-02-24T03:43:29.067Z,0.61
2019-02-24T03:44:28.934Z,0.58
2019-02-24T03:45:28.801Z,0.58
2019-02-24T03:46:28.668Z,0.43
2019-02-24T03:47:28.530Z,0.43
2019-02-24T03:48:28.399Z,0.39
2019-02-24T03:49:28.267Z,0.38
2019-02-24T03:50:28.135Z,0.42
2019-02-24T03:51:28.008Z,0.46
2019-02-24T03:52:27.874Z,0.58
2019-02-24T03:53:27.734Z,0.53
2019-02-24T03:54:27.598Z,0.68
2019-02-24T03:55:27.463Z,0.76
2019-02-24T03:56:27.331Z,0.79
2019-02-24T03:57:27.198Z,0.76
2019-02-24T03:58:27.068Z,0.79
2019-02-24T03:59:26.931Z,0.70
2019-02-24T04:00:26.796Z,0.61
2019-02-24T04:01:26.666Z,0.67
2019-02-24T04:02:26.529Z,0.64
2019-02-24T04:03:26.398Z,0.68
2019-02-24T04:04:26.267Z,0.60
2019-02-24T04:05:26.128Z,0.64
2019-02-24T04:06:25.997Z,0.61
2019-02-24T04:07:25.870Z,0.58
2019-02-24T04:08:25.732Z,0.70
2019-02-24T04:09:25.598Z,0.62
2019-02-24T04:10:25.462Z,0.60
2019-02-24T04:11:32.205Z,0.58
2019-02-24T04:12:25.197Z,0.52
2019-02-24T04:13:25.064Z,0.57
2019-02-24T04:14:24.929Z,0.51
2019-02-24T04:15:24.797Z,0.61
2019-02-24T04:16:24.660Z,0.58
2019-02-24T04:17:24.530Z,0.58
2019-02-24T04:18:24.397Z,0.53
2019-02-24T04:19:24.266Z,0.58
2019-02-24T04:20:25.130Z,0.71
2019-02-24T04:21:23.992Z,0.62
2019-02-24T04:22:23.865Z,0.78
2019-02-24T04:23:23.730Z,0.67
2019-02-24T04:24:23.593Z,0.78
2019-02-24T04:25:23.461Z,0.75
2019-02-24T04:26:23.329Z,0.71
2019-02-24T04:27:23.195Z,0.75
2019-02-24T04:28:23.060Z,0.72
2019-02-24T04:29:25.226Z,0.79
2019-02-24T04:30:22.797Z,0.76
2019-02-24T04:31:22.662Z,0.71
2019-02-24T04:32:22.525Z,0.76
2019-02-24T04:33:22.393Z,0.83
2019-02-24T04:34:22.260Z,0.78
2019-02-24T04:35:22.126Z,0.75
2019-02-24T04:36:21.995Z,0.72
2019-02-24T04:37:21.863Z,0.71
2019-02-24T04:38:21.728Z,0.96
2019-02-24T04:39:21.599Z,0.97
2019-02-24T04:40:21.460Z,0.90
2019-02-24T04:41:21.329Z,0.96
2019-02-24T04:42:21.192Z,0.94
2019-02-24T04:43:21.058Z,0.79
2019-02-24T04:44:20.925Z,0.76
2019-02-24T04:45:20.793Z,0.76
2019-02-24T04:46:20.660Z,0.64
2019-02-24T04:47:20.530Z,0.64
2019-02-24T04:48:20.394Z,0.61
2019-02-24T04:49:20.257Z,0.53
2019-02-24T04:50:20.136Z,0.61
2019-02-24T04:51:19.989Z,0.53
2019-02-24T04:52:19.859Z,0.62
2019-02-24T04:53:19.727Z,0.57
2019-02-24T04:54:19.592Z,0.70
2019-02-24T04:55:19.457Z,0.71
2019-02-24T04:56:19.324Z,0.71
2019-02-24T04:57:19.189Z,0.79
2019-02-24T04:58:19.060Z,0.72
2019-02-24T04:59:18.925Z,0.67
2019-02-24T05:00:18.789Z,0.68
2019-02-24T05:01:18.658Z,0.71
2019-02-24T05:02:18.525Z,0.67
2019-02-24T05:03:18.388Z,0.64
2019-02-24T05:04:19.262Z,0.76
2019-02-24T05:05:18.120Z,0.62
2019-02-24T05:06:17.994Z,0.68
2019-02-24T05:07:17.856Z,0.72
2019-02-24T05:08:17.723Z,0.72
2019-02-24T05:09:17.600Z,0.76
2019-02-24T05:10:17.455Z,0.64
2019-02-24T05:11:17.323Z,0.62
2019-02-24T05:12:17.190Z,0.62
2019-02-24T05:13:17.056Z,0.68
2019-02-24T05:14:16.924Z,0.75
2019-02-24T05:15:16.788Z,0.76
2019-02-24T05:16:16.655Z,0.71
2019-02-24T05:17:16.523Z,0.75
2019-02-24T05:18:16.389Z,0.76
2019-02-24T05:19:16.258Z,0.64
2019-02-24T05:20:16.121Z,0.67
2019-02-24T05:21:15.990Z,0.71
2019-02-24T05:22:15.857Z,0.65
2019-02-24T05:23:15.725Z,0.76
2019-02-24T05:24:15.589Z,0.71
2019-02-24T05:25:15.455Z,0.82
2019-02-24T05:26:15.321Z,0.86
2019-02-24T05:27:15.190Z,0.82
2019-02-24T05:28:15.069Z,0.76
2019-02-24T05:29:14.922Z,0.76
2019-02-24T05:30:14.789Z,0.75
2019-02-24T05:31:14.657Z,0.76
2019-02-24T05:32:14.520Z,0.76
2019-02-24T05:33:14.391Z,0.86
2019-02-24T05:34:21.220Z,0.96
2019-02-24T05:35:14.128Z,0.97
2019-02-24T05:36:13.987Z,0.96
2019-02-24T05:37:13.856Z,0.90
2019-02-24T05:38:13.723Z,0.85
2019-02-24T05:39:13.586Z,0.79
2019-02-24T05:40:13.455Z,0.85
2019-02-24T05:41:13.322Z,0.86
2019-02-24T05:42:13.191Z,0.90
2019-02-24T05:43:14.059Z,0.80
2019-02-24T05:44:12.920Z,0.76
2019-02-24T05:45:12.790Z,0.85
2019-02-24T05:46:12.652Z,0.88
2019-02-24T05:47:12.527Z,0.90
2019-02-24T05:48:12.407Z,0.83
2019-02-24T05:49:12.254Z,0.90
2019-02-24T05:50:12.124Z,0.89
2019-02-24T05:51:11.984Z,1.00
2019-02-24T05:52:11.855Z,0.98
2019-02-24T05:53:11.724Z,0.98
2019-02-24T05:54:11.586Z,0.94
2019-02-24T05:55:11.453Z,0.98
2019-02-24T05:56:11.351Z,0.97
2019-02-24T05:57:11.192Z,0.86
2019-02-24T05:58:11.057Z,0.90
2019-02-24T05:59:10.918Z,0.94
2019-02-24T06:00:10.787Z,0.90
2019-02-24T06:01:10.654Z,0.83
2019-02-24T06:02:10.521Z,0.80
2019-02-24T06:03:10.393Z,0.79
2019-02-24T06:04:10.255Z,0.85
2019-02-24T06:05:10.119Z,0.90
2019-02-24T06:06:09.989Z,0.90
2019-02-24T06:07:09.855Z,0.89
2019-02-24T06:08:09.724Z,0.89
2019-02-24T06:09:09.588Z,0.94
2019-02-24T06:10:09.451Z,0.94
2019-02-24T06:11:09.317Z,0.94
2019-02-24T06:12:09.192Z,0.85
2019-02-24T06:13:09.068Z,0.82
2019-02-24T06:14:08.920Z,0.85
2019-02-24T06:15:08.789Z,0.94
2019-02-24T06:16:08.652Z,0.97
2019-02-24T06:17:08.520Z,0.94
2019-02-24T06:18:08.386Z,0.94
2019-02-24T06:19:08.266Z,0.92
2019-02-24T06:20:08.119Z,0.98
2019-02-24T06:21:07.986Z,0.97
2019-02-24T06:22:14.723Z,0.86
2019-02-24T06:23:07.723Z,0.92
2019-02-24T06:24:07.586Z,0.88
2019-02-24T06:25:07.472Z,0.82
2019-02-24T06:26:07.324Z,0.85
2019-02-24T06:27:07.194Z,0.92
2019-02-24T06:28:07.062Z,0.98
2019-02-24T06:29:06.919Z,1.00
2019-02-24T06:30:06.792Z,1.00
2019-02-24T06:31:06.659Z,1.04
2019-02-24T06:32:06.525Z,1.03
2019-02-24T06:33:06.387Z,1.14
2019-02-24T06:34:06.256Z,1.14
2019-02-24T06:35:06.121Z,1.14
2019-02-24T06:36:05.989Z,1.26
2019-02-24T06:38:05.724Z,1.25
2019-02-24T06:39:05.592Z,1.25
2019-02-24T06:40:05.455Z,1.22
2019-02-24T06:41:05.333Z,1.19
2019-02-24T06:42:05.190Z,1.19
2019-02-24T06:43:05.054Z,1.28
2019-02-24T06:44:04.924Z,1.08
2019-02-24T06:45:04.795Z,1.16
2019-02-24T06:46:04.671Z,1.06
2019-02-24T06:47:04.525Z,1.03
2019-02-24T06:48:04.392Z,1.03
2019-02-24T06:49:04.261Z,1.01
2019-02-24T06:50:04.129Z,0.97
2019-02-24T06:51:03.996Z,0.96
2019-02-24T06:52:03.871Z,0.96
2019-02-24T06:53:03.727Z,1.04
2019-02-24T06:54:03.591Z,1.26
2019-02-24T06:55:03.468Z,1.36
2019-02-24T06:56:10.235Z,1.34
2019-02-24T06:57:03.192Z,1.40
2019-02-24T06:58:03.065Z,1.40
2019-02-24T06:59:02.929Z,1.32
2019-02-24T07:00:02.803Z,1.18
2019-02-24T07:01:17.241Z,1.22
2019-02-24T07:02:02.530Z,1.36
2019-02-24T07:03:02.414Z,1.29
2019-02-24T07:04:02.270Z,1.24
2019-02-24T07:05:02.130Z,1.34
2019-02-24T07:06:08.754Z,1.39
2019-02-24T07:07:01.868Z,1.32
2019-02-24T07:08:08.866Z,1.29
2019-02-24T07:09:54.415Z,1.28
2019-02-24T07:10:54.242Z,1.36
2019-02-24T07:12:46.900Z,1.29
2019-02-24T07:13:46.754Z,1.33
2019-02-24T07:15:39.431Z,1.19
2019-02-24T07:16:39.252Z,1.29
2019-02-24T07:18:31.899Z,1.25
2019-02-24T07:19:31.757Z,1.33
2019-02-24T07:21:24.437Z,1.29
2019-02-24T07:22:24.264Z,1.22
2019-02-24T07:24:16.915Z,1.19
2019-02-24T07:25:16.767Z,1.19
2019-02-24T07:27:09.454Z,1.29
2019-02-24T07:28:09.273Z,1.37
2019-02-24T07:30:01.933Z,1.42
2019-02-24T07:31:01.790Z,1.47
2019-02-24T07:32:01.650Z,1.65
2019-02-24T07:33:01.517Z,1.76
2019-02-24T07:34:01.385Z,1.98
2019-02-24T07:35:01.257Z,1.93
2019-02-24T07:36:01.122Z,1.98
2019-02-24T07:37:00.989Z,1.94
2019-02-24T07:38:07.987Z,2.01
2019-02-24T07:39:53.541Z,2.12
2019-02-24T07:40:53.361Z,2.13
2019-02-24T07:42:46.011Z,2.09
2019-02-24T07:43:45.869Z,2.15
2019-02-24T07:45:38.548Z,2.31
2019-02-24T07:46:38.377Z,2.73
2019-02-24T07:48:31.028Z,3.62
2019-02-24T07:49:30.890Z,3.72
2019-02-24T07:51:23.572Z,4.03
2019-02-24T07:52:23.404Z,4.10
2019-02-24T07:54:16.217Z,4.37
2019-02-24T07:55:15.914Z,4.57
2019-02-24T07:57:08.596Z,4.80
2019-02-24T07:58:08.430Z,4.98
2019-02-24T08:00:01.081Z,5.19
2019-02-24T08:01:00.944Z,5.37
2019-02-24T08:02:53.635Z,5.41
2019-02-24T08:04:01.233Z,5.53
2019-02-24T08:05:00.463Z,5.81
2019-02-24T08:06:45.983Z,5.70
2019-02-24T08:07:52.984Z,5.41
2019-02-24T08:09:38.530Z,4.80
2019-02-24T08:10:38.354Z,4.76
2019-02-24T08:12:31.011Z,4.54
2019-02-24T08:13:30.876Z,4.47
2019-02-24T08:15:23.562Z,4.59
2019-02-24T08:16:23.394Z,4.55
2019-02-24T08:18:16.056Z,5.13
2019-02-24T08:19:15.917Z,5.32
2019-02-24T08:21:08.921Z,5.71
2019-02-24T08:22:08.436Z,6.11
2019-02-24T08:24:01.128Z,6.53
2019-02-24T08:25:00.962Z,6.61
2019-02-24T08:26:00.827Z,6.66
2019-02-24T08:27:00.698Z,6.80
2019-02-24T08:28:00.570Z,7.15
2019-02-24T08:29:00.446Z,7.32
2019-02-24T08:30:02.450Z,7.47
2019-02-24T08:31:00.184Z,7.74
2019-02-24T08:32:00.059Z,7.85
2019-02-24T08:32:59.932Z,7.94
2019-02-24T08:33:59.801Z,8.00
2019-02-24T08:34:59.678Z,7.97
2019-02-24T08:35:59.548Z,6.84
2019-02-24T08:36:59.421Z,6.59
2019-02-24T08:37:59.294Z,6.76
2019-02-24T08:38:59.165Z,7.05
2019-02-24T08:39:59.040Z,7.37
2019-02-24T08:40:58.912Z,7.44
2019-02-24T08:41:58.784Z,7.41
2019-02-24T08:42:58.659Z,7.24
2019-02-24T08:43:58.532Z,7.44
2019-02-24T08:44:58.409Z,7.85
2019-02-24T08:45:58.277Z,7.85
2019-02-24T08:46:58.152Z,7.75
2019-02-24T08:47:58.038Z,7.55
2019-02-24T08:48:57.899Z,7.35
2019-02-24T08:49:57.771Z,7.24
2019-02-24T08:50:57.776Z,7.59
2019-02-24T08:51:57.519Z,7.77
2019-02-24T08:52:57.538Z,7.90
2019-02-24T08:53:57.264Z,8.07
2019-02-24T08:54:57.139Z,8.36
2019-02-24T08:55:57.015Z,8.39
2019-02-24T08:56:56.896Z,8.62
2019-02-24T08:57:56.764Z,8.88
2019-02-24T08:58:56.635Z,8.96
2019-02-24T08:59:56.507Z,9.15
2019-02-24T09:00:56.381Z,9.43
2019-02-24T09:01:56.312Z,9.57
2019-02-24T09:02:56.132Z,9.82
2019-02-24T09:03:56.005Z,10.21
2019-02-24T09:04:55.879Z,10.39
2019-02-24T09:05:55.752Z,10.42
2019-02-24T09:06:55.627Z,10.59
2019-02-24T09:07:55.501Z,10.66
2019-02-24T09:08:55.377Z,11.02
2019-02-24T09:09:55.250Z,11.11
2019-02-24T09:10:55.125Z,10.89
2019-02-24T09:11:55.002Z,10.89
2019-02-24T09:12:54.931Z,10.81
2019-02-24T09:13:54.759Z,10.88
2019-02-24T09:14:54.629Z,10.98
2019-02-24T09:15:54.522Z,10.81
2019-02-24T09:16:54.400Z,10.77
2019-02-24T09:17:54.254Z,10.86
2019-02-24T09:18:54.129Z,11.02
2019-02-24T09:19:54.013Z,10.89
2019-02-24T09:20:53.893Z,10.84
2019-02-24T09:21:53.762Z,10.78
2019-02-24T09:22:53.634Z,10.15
2019-02-24T09:23:53.509Z,10.46
2019-02-24T09:24:53.385Z,10.63
2019-02-24T09:25:53.267Z,11.20
2019-02-24T09:26:53.139Z,11.29
2019-02-24T09:27:53.013Z,11.01
2019-02-24T09:28:52.891Z,10.99
2019-02-24T09:29:52.771Z,10.94
2019-02-24T09:31:00.404Z,11.21
2019-02-24T09:31:52.518Z,11.39
2019-02-24T09:32:52.397Z,11.71
2019-02-24T09:33:52.271Z,11.93
2019-02-24T09:34:52.147Z,12.05
2019-02-24T09:35:52.027Z,12.09
2019-02-24T09:36:51.898Z,12.26
2019-02-24T09:37:51.779Z,12.34
2019-02-24T09:38:51.651Z,12.38
2019-02-24T09:39:51.527Z,11.89
2019-02-24T09:40:51.404Z,11.47
2019-02-24T09:41:51.283Z,11.77
2019-02-24T09:42:51.165Z,11.62
2019-02-24T09:43:51.036Z,11.61
2019-02-24T09:44:50.909Z,11.62
2019-02-24T09:45:50.787Z,11.38
2019-02-24T09:46:50.663Z,11.70
2019-02-24T09:47:50.538Z,11.71
2019-02-24T09:48:50.416Z,11.41
2019-02-24T09:49:50.289Z,11.35
2019-02-24T09:50:50.166Z,11.47
2019-02-24T09:51:50.043Z,11.47
2019-02-24T09:52:49.920Z,11.71
2019-02-24T09:53:49.796Z,11.75
2019-02-24T09:54:49.673Z,11.71
2019-02-24T09:55:49.547Z,11.86
2019-02-24T09:56:49.452Z,11.96
2019-02-24T09:57:49.300Z,12.09
2019-02-24T09:58:49.175Z,12.08
2019-02-24T09:59:49.053Z,12.12
2019-02-24T10:00:48.931Z,12.01
2019-02-24T10:01:48.804Z,12.04
2019-02-24T10:02:48.679Z,12.01
2019-02-24T10:03:48.556Z,12.26
2019-02-24T10:04:48.434Z,12.59
2019-02-24T10:05:48.425Z,12.66
2019-02-24T10:06:48.185Z,12.34
2019-02-24T10:07:48.064Z,11.93
2019-02-24T10:08:47.939Z,12.02
2019-02-24T10:09:47.836Z,12.12
2019-02-24T10:10:47.691Z,12.02
2019-02-24T10:11:47.568Z,12.20
2019-02-24T10:12:47.447Z,12.05
2019-02-24T10:13:47.321Z,11.96
2019-02-24T10:14:47.198Z,11.93
2019-02-24T10:15:47.074Z,11.80
2019-02-24T10:16:46.948Z,11.78
2019-02-24T10:17:46.876Z,11.77
2019-02-24T10:18:46.705Z,12.01
2019-02-24T10:19:46.581Z,11.65
2019-02-24T10:20:46.457Z,11.65
2019-02-24T10:21:46.333Z,11.82
2019-02-24T10:22:46.252Z,11.90
2019-02-24T10:23:46.084Z,11.82
2019-02-24T10:24:45.962Z,11.74
2019-02-24T10:25:45.838Z,12.23
2019-02-24T10:26:45.711Z,12.45
2019-02-24T10:27:45.586Z,12.60
2019-02-24T10:28:47.622Z,12.85
2019-02-24T10:29:45.339Z,13.11
2019-02-24T10:30:45.217Z,12.88
2019-02-24T10:31:45.096Z,12.77
2019-02-24T10:32:44.970Z,13.14
2019-02-24T10:33:44.845Z,13.55
2019-02-24T10:34:44.725Z,13.51
2019-02-24T10:35:44.599Z,13.24
2019-02-24T10:36:44.477Z,13.06
2019-02-24T10:37:44.357Z,12.75
2019-02-24T10:38:44.233Z,12.63
2019-02-24T10:39:44.110Z,12.64
2019-02-24T10:40:43.989Z,12.71
2019-02-24T10:41:43.861Z,12.81
2019-02-24T10:42:43.793Z,12.75
2019-02-24T10:43:43.616Z,12.84
2019-02-24T10:44:43.496Z,12.81
2019-02-24T10:45:43.370Z,12.74
2019-02-24T10:46:43.267Z,12.84
2019-02-24T10:47:43.131Z,12.74
2019-02-24T10:48:43.002Z,12.87
2019-02-24T10:49:42.879Z,12.99
2019-02-24T10:50:42.760Z,13.06
2019-02-24T10:51:42.635Z,13.04
2019-02-24T10:52:42.513Z,13.17
2019-02-24T10:53:42.388Z,13.59
2019-02-24T10:54:42.267Z,13.55
2019-02-24T10:55:42.143Z,13.44
2019-02-24T10:56:42.020Z,13.29
2019-02-24T10:57:41.898Z,12.85
2019-02-24T10:58:41.777Z,12.78
2019-02-24T10:59:41.667Z,12.81
2019-02-24T11:00:41.546Z,12.88
2019-02-24T11:01:41.408Z,13.21
2019-02-24T11:02:41.288Z,13.38
2019-02-24T11:03:41.174Z,13.30
2019-02-24T11:04:41.124Z,13.33
2019-02-24T11:05:40.914Z,13.44
2019-02-24T11:06:40.793Z,13.33
2019-02-24T11:07:40.677Z,13.29
2019-02-24T11:08:40.549Z,13.61
2019-02-24T11:09:40.451Z,13.73
2019-02-24T11:10:40.368Z,13.88
2019-02-24T11:11:40.343Z,13.96
2019-02-24T11:12:40.086Z,13.99
2019-02-24T11:13:39.933Z,13.89
2019-02-24T11:14:39.811Z,13.79
2019-02-24T11:15:39.688Z,13.84
2019-02-24T11:16:39.567Z,13.95
2019-02-24T11:17:39.444Z,14.24
2019-02-24T11:18:39.379Z,14.42
2019-02-24T11:19:39.202Z,14.20
2019-02-24T11:20:39.081Z,14.17
2019-02-24T11:21:38.961Z,14.14
2019-02-24T11:22:39.367Z,14.21
2019-02-24T11:23:38.944Z,14.29
2019-02-24T11:24:39.070Z,14.54
2019-02-24T11:25:39.555Z,14.74
2019-02-24T11:26:38.802Z,14.12
2019-02-24T11:27:38.501Z,13.56
2019-02-24T11:28:38.359Z,12.88
2019-02-24T11:29:39.031Z,12.64
2019-02-24T11:30:48.784Z,12.62
2019-02-24T11:32:13.743Z,12.49
2019-02-24T11:32:38.175Z,12.39
2019-02-24T11:34:40.408Z,12.24
2019-02-24T11:35:37.451Z,12.15
2019-02-24T11:36:39.273Z,12.06
2019-02-24T11:37:37.944Z,12.12
2019-02-24T11:39:37.303Z,12.19
2019-02-24T11:40:37.687Z,12.12
2019-02-24T11:41:51.598Z,11.93
2019-02-24T11:43:36.327Z,11.89
2019-02-24T11:44:36.458Z,11.78
2019-02-24T11:45:37.223Z,11.82
2019-02-24T11:46:36.251Z,11.80
2019-02-24T11:47:35.876Z,11.65
2019-02-24T11:48:35.914Z,11.57
2019-02-24T11:49:35.525Z,11.44
2019-02-24T11:50:36.320Z,11.49
2019-02-24T11:51:35.277Z,11.57
2019-02-24T11:52:36.773Z,11.44
2019-02-24T11:53:35.033Z,11.32
2019-02-24T11:54:34.908Z,11.31
2019-02-24T11:55:34.785Z,11.14
2019-02-24T11:56:34.667Z,11.21
2019-02-24T11:57:34.536Z,11.16
2019-02-24T11:58:34.412Z,11.25
2019-02-24T11:59:34.290Z,11.19
2019-02-24T12:00:34.165Z,11.19
2019-02-24T12:01:34.041Z,11.29
2019-02-24T12:02:34.699Z,11.32
2019-02-24T12:03:33.794Z,11.27
2019-02-24T12:04:33.667Z,11.27
2019-02-24T12:05:33.543Z,11.20
2019-02-24T12:06:33.420Z,11.21
2019-02-24T12:07:33.306Z,11.24
2019-02-24T12:08:33.175Z,11.31
2019-02-24T12:09:33.047Z,11.52
2019-02-24T12:10:32.923Z,11.67
2019-02-24T12:11:32.813Z,11.68
2019-02-24T12:12:32.676Z,11.72
2019-02-24T12:13:32.553Z,12.05
2019-02-24T12:14:32.430Z,12.21
2019-02-24T12:15:32.304Z,12.21
2019-02-24T12:16:32.184Z,12.06
2019-02-24T12:17:32.058Z,11.83
2019-02-24T12:18:32.002Z,11.87
2019-02-24T12:19:32.321Z,11.68
2019-02-24T12:20:31.685Z,11.74
2019-02-24T12:21:31.558Z,11.70
2019-02-24T12:22:31.436Z,11.82
2019-02-24T12:23:31.313Z,11.78
2019-02-24T12:24:31.188Z,11.83
2019-02-24T12:25:31.065Z,11.83
2019-02-24T12:26:31.089Z,11.83
2019-02-24T12:27:30.823Z,12.09
2019-02-24T12:28:30.693Z,12.09
2019-02-24T12:29:30.621Z,11.93
2019-02-24T12:30:30.446Z,11.90
2019-02-24T12:31:31.215Z,12.08
2019-02-24T12:32:31.784Z,12.16
2019-02-24T12:33:30.260Z,12.21
2019-02-24T12:34:29.954Z,12.24
2019-02-24T12:35:29.831Z,12.29
2019-02-24T12:36:29.705Z,12.45
2019-02-24T12:37:31.285Z,12.38
2019-02-24T12:38:29.456Z,12.37
2019-02-24T12:39:29.340Z,12.11
2019-02-24T12:40:29.209Z,11.90
2019-02-24T12:41:29.257Z,11.85
2019-02-24T12:42:28.959Z,11.52
2019-02-24T12:43:28.838Z,11.34
2019-02-24T12:44:28.718Z,11.11
2019-02-24T12:45:28.591Z,11.06
2019-02-24T12:46:28.465Z,11.09
2019-02-24T12:47:28.347Z,10.84
2019-02-24T12:48:28.335Z,10.94
2019-02-24T12:49:28.093Z,10.37
2019-02-24T12:50:27.968Z,10.24
2019-02-24T12:51:27.897Z,10.18
2019-02-24T12:52:27.751Z,10.06
2019-02-24T12:53:27.685Z,10.07
2019-02-24T12:54:27.477Z,10.14
2019-02-24T12:55:27.351Z,10.14
2019-02-24T12:56:27.226Z,10.03
2019-02-24T12:57:27.106Z,10.07
2019-02-24T12:58:26.980Z,10.18
2019-02-24T12:59:26.854Z,10.22
2019-02-24T13:00:26.760Z,10.52
2019-02-24T13:01:26.657Z,10.68
2019-02-24T13:02:26.477Z,10.65
2019-02-24T13:03:26.358Z,10.62
2019-02-24T13:04:26.227Z,10.39
2019-02-24T13:05:26.103Z,10.43
2019-02-24T13:06:25.983Z,10.42
2019-02-24T13:07:25.854Z,10.40
2019-02-24T13:08:25.729Z,10.37
2019-02-24T13:09:25.603Z,10.32
2019-02-24T13:10:25.480Z,10.36
2019-02-24T13:11:25.357Z,10.37
2019-02-24T13:12:25.234Z,10.58
2019-02-24T13:13:25.107Z,10.62
2019-02-24T13:14:24.997Z,10.58
2019-02-24T13:15:24.860Z,10.53
2019-02-24T13:16:24.733Z,10.43
2019-02-24T13:17:24.610Z,10.58
2019-02-24T13:18:24.482Z,10.55
2019-02-24T13:19:24.356Z,10.63
2019-02-24T13:20:24.234Z,10.39
2019-02-24T13:21:24.114Z,10.56
2019-02-24T13:22:23.981Z,10.74
2019-02-24T13:23:23.865Z,10.76
2019-02-24T13:24:23.736Z,10.84
2019-02-24T13:25:23.610Z,10.80
2019-02-24T13:26:23.484Z,10.52
2019-02-24T13:27:23.357Z,10.42
2019-02-24T13:28:23.234Z,10.37
2019-02-24T13:29:23.108Z,10.39
2019-02-24T13:30:22.982Z,10.47
2019-02-24T13:31:22.858Z,10.58
2019-02-24T13:32:22.737Z,10.58
2019-02-24T13:33:22.648Z,10.56